Hauptseite
METAR-TAF:

METAR-TAF

Flughäfen :

Flughafen Logroño

Logroño, Spanien

Breite: 42-27N, Länge: 002-20W, Höhe: 353 m

Beobachtung

Neuester Wetterbericht von vor 19 Minuten, um 06:00 UTC
Wind 11 kt aus West
Temperatur 6°C
Luftfeuchtigkeit 81%
Luftdruck 1011 hPa
Sichtweite 10 km oder mehr
Durchbrochene Bewölkung in der Höhe von 4600 ft

METAR: LELO 170600Z 27011KT 9999 BKN046 06/03 Q1011

Zeit: 07:19 (06:19 UTC)

Prognose

Neuester Wetterbericht von vor 1 Stunde und 19 Minuten, um 05:00 UTC
Gültige Prognose vom 17 um 06 UTC bis 17 um 15 UTC
Wind 10 kt aus West
Sichtweite 10 km oder mehr
Durchbrochene Bewölkung in der Höhe von 4000 ft
Zeitweise
vom 17 um 11 UTC bis 17 um 15 UTC
Wind 15 kt aus West, Böen bis zu 25 kt
Durchbrochene Bewölkung in der Höhe von 2000 ft
Regen

TAF: LELO 170500Z 1706/1715 27010KT 9999 BKN040 TEMPO 1711/1715 27015G25KT RA BKN020

Wetterbeobachtungen und Prognosen von mehr als 4000 Flughäfen (METAR und TAF Bericht).

Die verfügbaren Stationen werden durch gelbe und rote Markierungen auf der Karte dargestellt.

Führen Sie die Maus auf sie, um den Namen der Station zu sehen.

Darauf klicken, um die Beobachtung von Wetterbeobachtungen und Prognosen zu sehen.

Um die Karte zu ändern : klicken Sie auf den grünen Tasten mit einem schwarzen Kreuz Zum Vergrößern, auf den grünen Button mit einem Gedankenstrich zu verkleinern, oder auf die grünen Pfeile für benachbarte Karten.


METAR-TAF: